Sinclair, Wyoming
Current Conditions -  °F | °C
As of 12:03 AM on Sunday 23 Nov 2014 (Local Time) from KRWL Reporting Station
Overcast Overcast  
Wind Chill: 27°   Ceiling: 3500
Heat Index: 27°   Visibility: 9mi
Dew Point: 24°   Wind: 0mph
Humidity: 89%   Direction: NA
Pressure: 29.73"   Gusts: NA
Location:  41.77°N, 107.11°W
Report Text: KRWL 230703Z AUTO 00000KT 9SM OVC035 M03/M04 A2973 RMK AO2 SNE02 P0000 T10281044
Loading
Personal Weather Stations






























Interactive Weather Map New forecast layout! Learn more

10-Day Weather Forecast

Advertisements
Track Severe Weather on mobile